Main page
METAR-TAF:

METAR-TAF

Airports :

Libreville, Gabon

Libreville International Airport

latitude: 00-27N, longitude: 009-25E, elevation: 12 m

Current weather observation

The report was made 34 minutes ago, at 20:00 UTC
Wind 7 kt from the Southwest, varying between South/Southwest and West
Temperature 25°C
Humidity 83%
Pressure 1014 hPa
Visibility: 9000 m
Broken clouds at a height of 1300 ft

METAR: FOOL 202000Z 23007KT 200V260 9000 BKN013 25/22 Q1014 NOSIG

Time: 21:34 (20:34 UTC)

Forecast

The report was made 3 hours and 34 minutes ago, at 17:00 UTC
Forecast valid from 20 at 18 UTC to 21 at 24 UTC
Wind 7 kt from the South
Visibility 10 km or more
Scattered clouds at a height of 800 ft
Broken clouds at a height of 2600 ft
Probability 30% :
Temporary
from 21 at 01 UTC to 21 at 06 UTC
Visibility: 3500 m
Broken clouds at a height of 800 ft
drizzle

TAF: FOOL 201700Z 2018/2124 17007KT 9999 SCT008 BKN026 PROB30 TEMPO 2101/2106 3500 DZ BKN008

Weather observations and forecasts of more than 4000 airports (METAR and TAF reports).

The available stations are represented by yellow and red dots on the map.

Hover mouse over dot to see the name of the station.

Then click to see weather observations and forecasts.

To change the map : click on the green buttons with a black cross to zoom in, on the green button with a dash to zoom out, or on the green arrows for adjacent maps.


METAR-TAF: